Meteo Giornale » Osservazioni meteo Stati Uniti (USA) » Natchez-Hardy
ore: 23:56 - Osservazioni Meteo Natchez-Hardy
Lat. 31° 37' N Lon. 91° 18' W Alt. 83 metri s.l.m.
26 °C
Sereno
Temp. 24 Ore
22 °C
34 °C
Nord
5.5 Km/h
Dew point 25 °C
Umidità 94 %
Visibilità 10 Km
Il sole sorge alle ore 06:41
Il sole tramonta alle ore 19:29
| Data e Ora | Cielo e Fenomeni | T °C | DP °C | Um. % | Pres. hPa | Vis. km | Vento km/h | |
|---|---|---|---|---|---|---|---|---|
| Ieri h: 23:56 | Sereno | 26 | 25 | 94 | 1017 | 10 | N 5.5 | |
| Ieri h: 22:56 | Sereno | 27 | 24 | 83 | 1017 | 10 | N 5.5 | |
| Ieri h: 21:56 | Sereno | 27 | 24 | 83 | 1016 | 10 | N 5.5 | |
| Ieri h: 20:56 | Sereno | 27 | 23 | 78 | 1016 | 10 | S 7.4 | |
| Ieri h: 19:56 | Sereno | 29 | 25 | 79 | 1015 | 10 | N 0 | |
| Ieri h: 18:56 | Sereno | 32 | 23 | 59 | 1015 | 10 | N 5.5 | |
| Ieri h: 17:56 | Sereno | 33 | 22 | 52 | 1015 | 10 | E/NE 9.3 | |
| Ieri h: 16:56 | Nuvoloso | 34 | 22 | 49 | 1015 | 10 | NE 14.8 | |
| Ieri h: 15:56 | Poco Nuvoloso | 34 | 23 | 52 | 1016 | 10 | E/NE 9.3 | |
| Ieri h: 14:56 | Poco Nuvoloso | 33 | 23 | 55 | 1016 | 10 | E/NE 13 | |
| Ieri h: 13:56 | Molto Nuvoloso | 33 | 22 | 52 | 1017 | 14 | E 13 | |
| Ieri h: 12:56 | Poco Nuvoloso | 32 | 22 | 55 | 1018 | 10 | E/SE 13 | |
| Ieri h: 11:56 | Sereno | 32 | 23 | 59 | 1018 | 10 | E/SE 9.3 | |
| Ieri h: 10:56 | Sereno | 31 | 23 | 62 | 1019 | 10 | E/SE 20.3 | |
| Ieri h: 09:56 | Poco Nuvoloso | 29 | 24 | 74 | 1019 | 10 | N 9.3 | |
| Ieri h: 08:56 | Sereno | 27 | 25 | 88 | 1018 | 10 | E 7.4 | |
| Ieri h: 07:56 | Sereno | 25 | 25 | 100 | 1018 | 10 | E 7.4 | |
| Ieri h: 06:56 | Sereno | 22 | 0 | 23 | 1017 | 10 | N 0 | |
| Ieri h: 05:56 | Sereno | 23 | 0 | 21 | 1017 | 10 | N 0 | |
| Ieri h: 04:56 | Sereno | 23 | 0 | 21 | 1017 | 10 | N 0 | |
| Ieri h: 03:56 | Sereno | 23 | 0 | 21 | 1016 | 10 | N 0 | |
| Ieri h: 02:56 | Sereno | 23 | 0 | 21 | 1016 | 10 | N 0 | |
| Ieri h: 01:56 | Sereno | 24 | 0 | 20 | 1017 | 10 | N 0 | |
| Ieri h: 00:56 | Sereno | 25 | 24 | 94 | 1017 | 10 | N 0 | |



